• Join FlightAware (Why Join?)
  • Login
  • US Flag 
03:35PM EDT


 

Airport Tracker/Info


-or-


 

Live Flight TrackerFlight Track Log ✈ FWL335 ✈ 12-Jun-2013 ✈ KMIA - SKRG / MDE

Flight Track Log - Related Links

Times and Time Zones

All times are in EDT time to prevent confusion due to time zone crossing. See the FWL335 flight status page for this flight to view local times or setup timezone preferences in your user account.

Time Position Orientation Groundspeed Altitude Reporting Facility
EDT Latitude Longitude Course Direction KTS MPH feet Rate Location/Type
07:21PM 25.7900 -80.3010 284° West  Level FlightAware
07:22PM 25.7890 -80.3010 180° South 9 10 60 Level FlightAware
07:23PM 25.7890 -80.3020 270° West 26 30 60 Level FlightAware
07:23PM 25.7890 -80.3040 270° West 30 35 60 Level FlightAware
07:24PM 25.7880 -80.3050 222° Southwest 31 36 60 Level FlightAware
07:24PM 25.7880 -80.3070 270° West 33 38 60 Level FlightAware
07:25PM 25.7880 -80.3080 270° West 15 17 60 Level FlightAware
07:25PM 25.7880 -80.3130 270° West 34 39 120 Level FlightAware
07:26PM 25.7880 -80.3140 270° West 31 36 120 Level FlightAware
07:26PM 25.7880 -80.3150 270° West 23 26 120 Level FlightAware
07:28PM 25.7860 -80.3140 156° South 13 15 180 Level FlightAware
07:29PM 25.7870 -80.3000 85° East 150 173 480 Level FlightAware
07:29PM 25.7880 -80.2730 88° East 183 211 600 1,680 Climbing FlightAware
07:30PM 25.7810 -80.2460 106° East 198 228 1,700 1,680 Climbing FlightAware
07:30PM 25.7690 -80.2200 117° Southeast 237 273 2,200 1,080 Climbing FlightAware
07:31PM 25.7620 -80.2040 116° Southeast 249 287 2,800 1,620 Climbing FlightAware
07:31PM 25.7520 -80.1870 123° Southeast 255 293 3,600 4,860 Climbing FlightAware
07:32PM 25.7050 -80.1690 161° South 275 316 5,500 5,220 Climbing FlightAware
07:32PM 25.6850 -80.1670 175° South 276 318 6,400 3,060 Climbing FlightAware
07:32PM 25.6560 -80.1650 176° South 282 325 7,500 2,940 Climbing FlightAware
07:33PM 25.6170 -80.1610 175° South 289 333 9,000 2,280 Climbing FlightAware
07:34PM 25.5360 -80.1650 183° South 327 376 10,900 1,620 Climbing FlightAware
07:34PM 25.4850 -80.1700 185° South 373 429 11,600 1,560 Climbing FlightAware
07:35PM 25.4260 -80.1750 184° South 386 444 13,100 2,820 Climbing FlightAware
07:36PM 25.3190 -80.1360 162° South 370 426 15,900 3,060 Climbing FlightAware
07:36PM 25.2680 -80.1180 162° South 370 426 17,000 2,220 Climbing FlightAware
07:37PM 25.2110 -80.0760 146° Southeast 371 427 18,500 2,040 Climbing FlightAware
07:38PM 25.1540 -80.0270 142° Southeast 388 447 19,800 1,380 Climbing FlightAware
07:38PM 25.0830 -79.9720 145° Southeast 424 488 20,500 1,320 Climbing FlightAware
07:39PM 25.0000 -79.9350 158° South 443 510 21,800 1,680 Climbing FlightAware
07:40PM 24.8640 -79.8820 161° South 459 528 23,800 1,740 Climbing FlightAware
07:41PM 24.7770 -79.8490 161° South 462 532 25,000 1,680 Climbing FlightAware
07:42PM 24.6970 -79.8190 161° South 475 547 26,100 1,680 Climbing FlightAware
07:42PM 24.6060 -79.7840 161° South 476 548 27,400 1,980 Climbing FlightAware
07:43PM 24.5210 -79.7520 161° South 463 533 28,900 1,980 Climbing FlightAware
07:44PM 24.4370 -79.7200 161° South 472 543 30,100 840 Climbing FlightAware
07:45PM 24.3560 -79.6890 161° South 472 543 30,200 1,440 Climbing FlightAware
07:45PM 24.2310 -79.6420 161° South 479 551 32,500 1,380 Climbing FlightAware
07:46PM 24.1460 -79.6100 161° South 479 551 32,500  Level FlightAware
07:47PM 24.0850 -79.5870 161° South 479 551 32,500  Level FlightAware
07:48PM 24.0000 -79.5550 161° South 479 551 32,500  Level FlightAware
07:48PM 23.9350 -79.5300 161° South 479 551 32,500  Level FlightAware
07:49PM 23.8480 -79.4980 161° South 479 551 32,500  Level FlightAware
07:50PM 23.7840 -79.4730 160° South 479 551 32,500 180 Level FlightAware
07:50PM 23.6160 -79.4100 161° South 33,000 300 Climbing FlightAware
07:51PM 23.5120 -79.3700 161° South 478 550 33,000  Level FlightAware
07:52PM 23.4170 -79.3350 161° South 480 552 33,000  Level FlightAware
07:53PM 23.3270 -79.3010 161° South 480 552 33,000  Level FlightAware
07:53PM 23.2610 -79.2750 160° South 480 552 33,000  Level FlightAware
07:54PM 23.1760 -79.2410 160° South 480 552 33,000  Level FlightAware
07:55PM 23.1120 -79.2160 160° South 480 552 33,000  Level FlightAware
07:55PM 23.0250 -79.1810 160° South 480 552 33,000  Level FlightAware
07:56PM 22.9650 -79.1570 160° South 480 552 33,000  Level FlightAware
07:57PM 22.8800 -79.1240 160° South 480 552 33,000  Level FlightAware
07:57PM 22.8160 -79.0990 160° South 480 552 33,000  Level FlightAware
07:58PM 22.7290 -79.0640 160° South 480 552 33,000  Level FlightAware
07:59PM 22.6690 -79.0400 160° South 480 552 33,000  Level FlightAware
08:00PM 22.5800 -79.0050 160° South 480 552 33,000  Level FlightAware
08:00PM 22.5070 -78.9770 160° South 480 552 33,000  Level FlightAware
08:01PM 22.4440 -78.9520 160° South 480 552 33,000  Level FlightAware
08:02PM 22.3570 -78.9170 160° South 480 552 33,000  Level FlightAware
08:04PM 22.1571 -78.8514 163° South  Level FlightAware Approximate
08:05PM 22.0417 -78.8136 163° South  Level FlightAware Approximate
08:06PM 21.9250 -78.7807 167° South  Level FlightAware Approximate
08:07PM 21.8077 -78.7505 167° South  Level FlightAware Approximate
08:08PM 21.6905 -78.7204 167° South  Level FlightAware Approximate
08:09PM 21.5732 -78.6903 167° South  Level FlightAware Approximate
08:10PM 21.4559 -78.6603 167° South  Level FlightAware Approximate
08:11PM 21.3387 -78.6304 167° South  Level FlightAware Approximate
08:12PM 21.2214 -78.6004 167° South  Level FlightAware Approximate
08:13PM 21.1041 -78.5706 167° South  Level FlightAware Approximate
08:14PM 20.9868 -78.5407 167° South  Level FlightAware Approximate
08:15PM 20.8696 -78.5110 167° South  Level FlightAware Approximate
08:16PM 20.7523 -78.4812 167° South  Level FlightAware Approximate
08:17PM 20.6350 -78.4516 167° South  Level FlightAware Approximate
08:18PM 20.5177 -78.4219 167° South  Level FlightAware Approximate
08:19PM 20.4004 -78.3923 167° South  Level FlightAware Approximate
08:20PM 20.2830 -78.3628 167° South  Level FlightAware Approximate
08:21PM 20.1657 -78.3333 167° South  Level FlightAware Approximate
08:22PM 20.0484 -78.3038 167° South  Level FlightAware Approximate
08:23PM 19.9314 -78.2728 164° South  Level FlightAware Approximate
08:24PM 19.8154 -78.2381 164° South  Level FlightAware Approximate
08:25PM 19.6994 -78.2035 164° South  Level FlightAware Approximate
08:26PM 19.5833 -78.1689 164° South  Level FlightAware Approximate
08:27PM 19.4673 -78.1343 164° South  Level FlightAware Approximate
08:28PM 19.3512 -78.0998 164° South  Level FlightAware Approximate
08:29PM 19.2351 -78.0654 164° South  Level FlightAware Approximate
08:30PM 19.1190 -78.0310 164° South  Level FlightAware Approximate
08:31PM 19.0029 -77.9966 164° South  Level FlightAware Approximate
08:32PM 18.8869 -77.9623 164° South  Level FlightAware Approximate
08:33PM 18.7708 -77.9281 164° South  Level FlightAware Approximate
08:34PM 18.6546 -77.8939 164° South  Level FlightAware Approximate
08:35PM 18.5385 -77.8597 164° South  Level FlightAware Approximate
08:36PM 18.4224 -77.8256 164° South  Level FlightAware Approximate
08:37PM 18.3063 -77.7915 164° South  Level FlightAware Approximate
08:38PM 18.1902 -77.7575 164° South  Level FlightAware Approximate
08:39PM 18.0740 -77.7235 164° South  Level FlightAware Approximate
08:40PM 17.9579 -77.6896 164° South  Level FlightAware Approximate
08:41PM 17.8417 -77.6557 164° South  Level FlightAware Approximate
08:42PM 17.7256 -77.6218 164° South  Level FlightAware Approximate
08:43PM 17.6094 -77.5881 164° South  Level FlightAware Approximate
08:44PM 17.4932 -77.5543 165° South  Level FlightAware Approximate
08:45PM 17.3771 -77.5206 165° South  Level FlightAware Approximate
08:46PM 17.2609 -77.4869 165° South  Level FlightAware Approximate
08:47PM 17.1447 -77.4533 165° South  Level FlightAware Approximate
08:48PM 17.0286 -77.4194 164° South  Level FlightAware Approximate
08:49PM 16.9125 -77.3855 164° South  Level FlightAware Approximate
08:50PM 16.7964 -77.3517 164° South  Level FlightAware Approximate
08:51PM 16.6803 -77.3179 164° South  Level FlightAware Approximate
08:52PM 16.5642 -77.2841 164° South  Level FlightAware Approximate
08:53PM 16.4480 -77.2504 164° South  Level FlightAware Approximate
08:54PM 16.3319 -77.2167 164° South  Level FlightAware Approximate
08:55PM 16.2158 -77.1831 164° South  Level FlightAware Approximate
08:56PM 16.0996 -77.1495 164° South  Level FlightAware Approximate
08:57PM 15.9835 -77.1159 164° South  Level FlightAware Approximate
08:58PM 15.8673 -77.0824 164° South  Level FlightAware Approximate
08:59PM 15.7512 -77.0489 164° South  Level FlightAware Approximate
09:00PM 15.6350 -77.0155 165° South  Level FlightAware Approximate
09:01PM 15.5188 -76.9821 165° South  Level FlightAware Approximate
09:02PM 15.4027 -76.9487 165° South  Level FlightAware Approximate
09:03PM 15.2865 -76.9154 165° South  Level FlightAware Approximate
09:04PM 15.1703 -76.8821 165° South  Level FlightAware Approximate
09:05PM 15.0541 -76.8488 165° South  Level FlightAware Approximate
09:06PM 14.9379 -76.8157 165° South  Level FlightAware Approximate
09:07PM 14.8216 -76.7828 165° South  Level FlightAware Approximate
09:08PM 14.7054 -76.7499 165° South  Level FlightAware Approximate
09:09PM 14.5891 -76.7170 165° South  Level FlightAware Approximate
09:10PM 14.4728 -76.6842 165° South  Level FlightAware Approximate
09:11PM 14.3565 -76.6514 165° South  Level FlightAware Approximate
09:12PM 14.2402 -76.6187 165° South  Level FlightAware Approximate
09:13PM 14.1240 -76.5859 165° South  Level FlightAware Approximate
09:14PM 14.0077 -76.5533 165° South  Level FlightAware Approximate
09:15PM 13.8914 -76.5206 165° South  Level FlightAware Approximate
09:16PM 13.7751 -76.4880 165° South  Level FlightAware Approximate
09:17PM 13.6587 -76.4554 165° South  Level FlightAware Approximate
09:18PM 13.5424 -76.4228 165° South  Level FlightAware Approximate
09:19PM 13.4261 -76.3903 165° South  Level FlightAware Approximate
09:20PM 13.3098 -76.3578 165° South  Level FlightAware Approximate
09:21PM 13.1935 -76.3253 165° South  Level FlightAware Approximate
09:22PM 13.0771 -76.2929 165° South  Level FlightAware Approximate
09:23PM 12.9608 -76.2605 165° South  Level FlightAware Approximate
09:24PM 12.8445 -76.2281 165° South  Level FlightAware Approximate
09:25PM 12.7281 -76.1958 165° South  Level FlightAware Approximate
09:26PM 12.6118 -76.1635 165° South  Level FlightAware Approximate
09:27PM 12.4954 -76.1312 165° South  Level FlightAware Approximate
09:28PM 12.3791 -76.0989 165° South  Level FlightAware Approximate
09:29PM 12.2627 -76.0667 165° South  Level FlightAware Approximate
09:30PM 12.1464 -76.0345 165° South  Level FlightAware Approximate
09:31PM 12.0300 -76.0023 165° South  Level FlightAware Approximate
09:32PM 11.9136 -75.9702 165° South  Level FlightAware Approximate
09:33PM 11.7973 -75.9381 165° South  Level FlightAware Approximate
09:33PM 10.5450 -76.1530 165° South 453 521 35,000  Level FlightAware
09:34PM 11.6809 -75.9060 165° South  Level FlightAware Approximate
09:34PM 10.4590 -76.1390 171° South 454 522 35,000  Level FlightAware
09:35PM 10.3450 -76.1200 171° South 454 522 35,000  Level FlightAware
09:36PM 10.2380 -76.1030 171° South 35,000  Level FlightAware
09:37PM 10.1420 -76.0870 171° South 455 524 35,000  Level FlightAware
09:37PM 10.0500 -76.0730 171° South 458 527 35,000  Level FlightAware
09:38PM 9.9660 -76.0590 171° South 459 528 35,000  Level FlightAware
09:39PM 9.8600 -76.0410 171° South 460 529 35,000  Level FlightAware
09:40PM 9.7730 -76.0250 170° South 460 529 35,000  Level FlightAware
09:40PM 9.6490 -76.0070 172° South 457 526 35,000  Level FlightAware
09:41PM 9.5620 -75.9910 170° South 457 526 35,000  Level FlightAware
09:42PM 9.4990 -75.9800 170° South 457 526 35,000  Level FlightAware
09:42PM 9.4300 -75.9670 169° South 457 526 35,000  Level FlightAware
09:43PM 9.3450 -75.9520 170° South 457 526 35,000  Level FlightAware
09:44PM 9.2790 -75.9410 171° South 457 526 35,000  Level FlightAware
09:45PM 9.0970 -75.9180 173° South 462 532 35,000  Level FlightAware
09:45PM 9.0120 -75.9040 171° South 462 532 35,000  Level FlightAware
09:46PM 8.9270 -75.8910 171° South 463 533 35,000  Level FlightAware
09:47PM 8.8250 -75.8740 171° South 462 532 35,000  Level FlightAware
09:47PM 8.7460 -75.8620 171° South 463 533 35,000  Level FlightAware
09:48PM 8.6500 -75.8460 171° South 463 533 35,000  Level FlightAware
09:49PM 8.5550 -75.8300 171° South 462 532 35,000  Level FlightAware
09:50PM 8.4810 -75.8180 171° South 462 532 35,000  Level FlightAware
09:50PM 8.3510 -75.7980 171° South 463 533 35,000  Level FlightAware
09:51PM 8.2560 -75.7830 171° South 463 533 35,000  Level FlightAware
09:52PM 8.1710 -75.7690 171° South 462 532 35,000  Level FlightAware
09:53PM 8.0860 -75.7550 171° South 460 529 35,000  Level FlightAware
09:53PM 8.0000 -75.7410 171° South 458 527 35,000  Level FlightAware
09:55PM 7.8850 -75.7230 171° South 458 527 35,000  Level FlightAware
09:55PM 7.7920 -75.7080 171° South 458 527 35,000  Level FlightAware
09:56PM 7.7280 -75.6980 171° South 458 527 35,000  Level FlightAware
09:57PM 7.6430 -75.6840 171° South 458 527 35,000  Level FlightAware
09:58PM 7.5610 -75.6710 171° South 458 527 35,000  Level FlightAware
09:58PM 7.4950 -75.6610 171° South 458 527 35,000  Level FlightAware
09:59PM 7.3880 -75.6430 171° South 458 527 35,000  Level FlightAware
10:00PM 7.3210 -75.6330 172° South 458 527 35,000  Level FlightAware
10:00PM 7.2500 -75.6210 170° South 458 527 35,000  Level FlightAware
10:01PM 7.1640 -75.6080 171° South 458 527 35,000  Level FlightAware
10:02PM 7.1020 -75.5980 171° South 458 527 35,000  Level FlightAware
10:03PM 7.0150 -75.5840 171° South 458 527 35,000  Level FlightAware
10:03PM 6.9470 -75.5730 171° South 458 527 35,000  Level FlightAware
10:06PM 6.6845 -75.5227 169° South  Level Estimated
10:07PM 6.5661 -75.5000 169° South  Level Estimated
10:08PM 6.4477 -75.4773 169° South  Level Estimated
10:09PM 6.3293 -75.4546 169° South  Level Estimated
10:10PM 6.2108 -75.4320 169° South  Level Estimated
10:11PM 6.1645 -75.4231 169° South  Level Estimated
10:12PM 6.1645 -75.4231 166° South  Level Estimated
10:13PM 6.1645 -75.4231 166° South  Level Estimated
10:14PM 6.1645 -75.4231 166° South  Level Estimated
10:15PM 6.1645 -75.4231 166° South  Level Estimated
10:16PM 6.1645 -75.4231 166° South  Level Estimated
10:17PM 6.1645 -75.4231 166° South  Level Estimated
10:18PM 6.1645 -75.4231 166° South  Level Estimated
10:19PM 6.1645 -75.4231 166° South  Level Estimated
10:20PM 6.1645 -75.4231 166° South  Level Estimated
10:21PM 6.1645 -75.4231 166° South  Level Estimated
10:22PM 6.1645 -75.4231 166° South  Level Estimated
10:23PM 6.1645 -75.4231 166° South  Level Estimated
10:24PM 6.1645 -75.4231 166° South  Level Estimated
10:25PM 6.1645 -75.4231 166° South  Level Estimated
10:26PM 6.1645 -75.4231 166° South  Level Estimated
10:27PM 6.1645 -75.4231 166° South  Level Estimated
10:28PM 6.1645 -75.4231 166° South  Level Estimated
10:29PM 6.1645 -75.4231 166° South  Level Estimated
10:30PM 6.1645 -75.4231 166° South  Level Estimated
10:31PM 6.1645 -75.4231 166° South  Level Estimated
10:32PM 6.1645 -75.4231 166° South  Level Estimated
10:33PM 6.1645 -75.4231 166° South  Level Estimated
10:34PM 6.1645 -75.4231 166° South  Level Estimated
10:35PM 6.1645 -75.4231 166° South  Level Estimated
10:36PM 6.1645 -75.4231 166° South  Level Estimated